sensor_id;sensor_type;location;lat;lon;timestamp;P1;durP1;ratioP1;P2;durP2;ratioP2
57746;SDS011;43580;44.014;20.466;2023-07-13T00:01:24;11.63;;;8.65;;
57746;SDS011;43580;44.014;20.466;2023-07-13T00:03:50;13.70;;;9.10;;
57746;SDS011;43580;44.014;20.466;2023-07-13T00:06:16;12.65;;;8.73;;
57746;SDS011;43580;44.014;20.466;2023-07-13T00:08:44;12.40;;;8.77;;
57746;SDS011;43580;44.014;20.466;2023-07-13T00:11:10;11.98;;;9.23;;
57746;SDS011;43580;44.014;20.466;2023-07-13T00:13:36;14.38;;;9.55;;
57746;SDS011;43580;44.014;20.466;2023-07-13T00:16:04;20.98;;;10.90;;
57746;SDS011;43580;44.014;20.466;2023-07-13T00:18:30;16.50;;;9.75;;
57746;SDS011;43580;44.014;20.466;2023-07-13T00:20:56;15.30;;;9.82;;
57746;SDS011;43580;44.014;20.466;2023-07-13T00:23:30;15.27;;;8.75;;
57746;SDS011;43580;44.014;20.466;2023-07-13T00:25:58;12.05;;;8.80;;
57746;SDS011;43580;44.014;20.466;2023-07-13T00:28:27;19.77;;;9.02;;
57746;SDS011;43580;44.014;20.466;2023-07-13T00:30:55;16.80;;;9.40;;
57746;SDS011;43580;44.014;20.466;2023-07-13T00:33:21;15.02;;;10.02;;
57746;SDS011;43580;44.014;20.466;2023-07-13T00:35:48;12.98;;;9.85;;
57746;SDS011;43580;44.014;20.466;2023-07-13T00:38:14;19.20;;;9.73;;
57746;SDS011;43580;44.014;20.466;2023-07-13T00:40:41;18.35;;;10.65;;
57746;SDS011;43580;44.014;20.466;2023-07-13T00:43:22;18.63;;;9.80;;
57746;SDS011;43580;44.014;20.466;2023-07-13T00:48:18;14.90;;;9.68;;
57746;SDS011;43580;44.014;20.466;2023-07-13T00:50:51;16.10;;;8.77;;
57746;SDS011;43580;44.014;20.466;2023-07-13T00:53:18;11.18;;;7.97;;
57746;SDS011;43580;44.014;20.466;2023-07-13T00:55:44;13.55;;;9.15;;
57746;SDS011;43580;44.014;20.466;2023-07-13T00:58:10;15.00;;;8.68;;
57746;SDS011;43580;44.014;20.466;2023-07-13T01:00:37;11.98;;;8.63;;
57746;SDS011;43580;44.014;20.466;2023-07-13T01:03:04;17.45;;;9.40;;
57746;SDS011;43580;44.014;20.466;2023-07-13T01:05:32;14.10;;;9.20;;
57746;SDS011;43580;44.014;20.466;2023-07-13T01:07:59;18.38;;;9.35;;
57746;SDS011;43580;44.014;20.466;2023-07-13T01:10:26;15.20;;;9.05;;
57746;SDS011;43580;44.014;20.466;2023-07-13T01:13:03;17.02;;;9.82;;
57746;SDS011;43580;44.014;20.466;2023-07-13T01:15:46;17.05;;;10.45;;
57746;SDS011;43580;44.014;20.466;2023-07-13T01:18:13;14.55;;;9.88;;
57746;SDS011;43580;44.014;20.466;2023-07-13T01:20:40;13.02;;;8.73;;
57746;SDS011;43580;44.014;20.466;2023-07-13T01:23:07;15.48;;;10.10;;
57746;SDS011;43580;44.014;20.466;2023-07-13T01:25:34;15.73;;;10.05;;
57746;SDS011;43580;44.014;20.466;2023-07-13T01:28:01;14.35;;;10.60;;
57746;SDS011;43580;44.014;20.466;2023-07-13T01:30:27;18.63;;;9.98;;
57746;SDS011;43580;44.014;20.466;2023-07-13T01:32:53;15.00;;;10.45;;
57746;SDS011;43580;44.014;20.466;2023-07-13T01:35:19;12.35;;;10.85;;
57746;SDS011;43580;44.014;20.466;2023-07-13T01:37:45;17.70;;;11.68;;
57746;SDS011;43580;44.014;20.466;2023-07-13T01:40:11;19.25;;;12.27;;
57746;SDS011;43580;44.014;20.466;2023-07-13T01:42:38;14.32;;;10.52;;
57746;SDS011;43580;44.014;20.466;2023-07-13T01:45:04;14.15;;;9.73;;
57746;SDS011;43580;44.014;20.466;2023-07-13T01:47:30;16.15;;;9.68;;
57746;SDS011;43580;44.014;20.466;2023-07-13T01:49:59;16.80;;;10.80;;
57746;SDS011;43580;44.014;20.466;2023-07-13T01:52:25;17.38;;;11.68;;
57746;SDS011;43580;44.014;20.466;2023-07-13T01:54:51;14.88;;;9.80;;
57746;SDS011;43580;44.014;20.466;2023-07-13T01:57:17;14.00;;;9.70;;
57746;SDS011;43580;44.014;20.466;2023-07-13T01:59:43;17.55;;;9.98;;
57746;SDS011;43580;44.014;20.466;2023-07-13T02:02:09;13.98;;;9.82;;
57746;SDS011;43580;44.014;20.466;2023-07-13T02:04:36;15.02;;;9.38;;
57746;SDS011;43580;44.014;20.466;2023-07-13T02:07:02;13.38;;;9.88;;
57746;SDS011;43580;44.014;20.466;2023-07-13T02:09:28;12.75;;;8.68;;
57746;SDS011;43580;44.014;20.466;2023-07-13T02:11:54;12.50;;;9.05;;
57746;SDS011;43580;44.014;20.466;2023-07-13T02:14:20;15.48;;;8.75;;
57746;SDS011;43580;44.014;20.466;2023-07-13T02:16:46;14.93;;;9.80;;
57746;SDS011;43580;44.014;20.466;2023-07-13T02:19:13;15.20;;;9.90;;
57746;SDS011;43580;44.014;20.466;2023-07-13T02:21:39;16.25;;;10.30;;
57746;SDS011;43580;44.014;20.466;2023-07-13T02:24:05;14.88;;;9.25;;
57746;SDS011;43580;44.014;20.466;2023-07-13T02:26:31;18.48;;;9.30;;
57746;SDS011;43580;44.014;20.466;2023-07-13T02:28:57;12.52;;;9.70;;
57746;SDS011;43580;44.014;20.466;2023-07-13T02:31:26;13.75;;;9.20;;
57746;SDS011;43580;44.014;20.466;2023-07-13T02:33:52;15.50;;;9.55;;
57746;SDS011;43580;44.014;20.466;2023-07-13T02:36:18;18.55;;;10.88;;
57746;SDS011;43580;44.014;20.466;2023-07-13T02:38:45;17.55;;;10.93;;
57746;SDS011;43580;44.014;20.466;2023-07-13T02:41:11;17.13;;;10.85;;
57746;SDS011;43580;44.014;20.466;2023-07-13T02:43:37;16.95;;;10.00;;
57746;SDS011;43580;44.014;20.466;2023-07-13T02:46:03;18.55;;;10.32;;
57746;SDS011;43580;44.014;20.466;2023-07-13T02:48:32;15.25;;;9.65;;
57746;SDS011;43580;44.014;20.466;2023-07-13T02:50:58;16.65;;;10.05;;
57746;SDS011;43580;44.014;20.466;2023-07-13T02:53:24;17.00;;;9.90;;
57746;SDS011;43580;44.014;20.466;2023-07-13T02:55:50;13.25;;;10.05;;
57746;SDS011;43580;44.014;20.466;2023-07-13T02:58:16;15.80;;;9.55;;
57746;SDS011;43580;44.014;20.466;2023-07-13T03:00:43;12.63;;;9.77;;
57746;SDS011;43580;44.014;20.466;2023-07-13T03:03:09;15.68;;;9.57;;
57746;SDS011;43580;44.014;20.466;2023-07-13T03:05:37;13.93;;;9.77;;
57746;SDS011;43580;44.014;20.466;2023-07-13T03:08:03;15.85;;;9.35;;
57746;SDS011;43580;44.014;20.466;2023-07-13T03:10:29;15.20;;;9.88;;
57746;SDS011;43580;44.014;20.466;2023-07-13T03:12:55;13.52;;;9.52;;
57746;SDS011;43580;44.014;20.466;2023-07-13T03:15:21;14.95;;;9.85;;
57746;SDS011;43580;44.014;20.466;2023-07-13T03:17:47;21.42;;;11.05;;
57746;SDS011;43580;44.014;20.466;2023-07-13T03:20:13;15.90;;;10.55;;
57746;SDS011;43580;44.014;20.466;2023-07-13T03:22:39;15.40;;;10.95;;
57746;SDS011;43580;44.014;20.466;2023-07-13T03:25:06;13.98;;;9.68;;
57746;SDS011;43580;44.014;20.466;2023-07-13T03:27:33;17.63;;;9.70;;
57746;SDS011;43580;44.014;20.466;2023-07-13T03:29:59;14.48;;;9.63;;
57746;SDS011;43580;44.014;20.466;2023-07-13T03:32:25;15.15;;;9.82;;
57746;SDS011;43580;44.014;20.466;2023-07-13T03:34:51;13.90;;;9.30;;
57746;SDS011;43580;44.014;20.466;2023-07-13T03:37:20;16.88;;;10.50;;
57746;SDS011;43580;44.014;20.466;2023-07-13T03:39:46;20.95;;;9.90;;
57746;SDS011;43580;44.014;20.466;2023-07-13T03:42:12;14.40;;;9.07;;
57746;SDS011;43580;44.014;20.466;2023-07-13T03:44:39;14.43;;;8.95;;
57746;SDS011;43580;44.014;20.466;2023-07-13T03:47:05;16.65;;;8.93;;
57746;SDS011;43580;44.014;20.466;2023-07-13T03:49:33;15.98;;;9.45;;
57746;SDS011;43580;44.014;20.466;2023-07-13T03:52:04;14.40;;;9.50;;
57746;SDS011;43580;44.014;20.466;2023-07-13T03:54:31;13.32;;;9.00;;
57746;SDS011;43580;44.014;20.466;2023-07-13T03:56:57;13.90;;;9.02;;
57746;SDS011;43580;44.014;20.466;2023-07-13T03:59:24;18.85;;;10.70;;
57746;SDS011;43580;44.014;20.466;2023-07-13T04:01:50;12.80;;;9.15;;
57746;SDS011;43580;44.014;20.466;2023-07-13T04:04:16;13.60;;;9.55;;
57746;SDS011;43580;44.014;20.466;2023-07-13T04:06:42;16.40;;;9.90;;
57746;SDS011;43580;44.014;20.466;2023-07-13T04:09:08;14.00;;;10.25;;
57746;SDS011;43580;44.014;20.466;2023-07-13T04:11:34;18.35;;;9.98;;
57746;SDS011;43580;44.014;20.466;2023-07-13T04:14:01;19.77;;;10.02;;
57746;SDS011;43580;44.014;20.466;2023-07-13T04:16:27;14.35;;;10.05;;
57746;SDS011;43580;44.014;20.466;2023-07-13T04:18:56;19.63;;;9.63;;
57746;SDS011;43580;44.014;20.466;2023-07-13T04:21:25;14.30;;;9.98;;
57746;SDS011;43580;44.014;20.466;2023-07-13T04:23:51;11.77;;;9.88;;
57746;SDS011;43580;44.014;20.466;2023-07-13T04:26:17;14.55;;;10.50;;
57746;SDS011;43580;44.014;20.466;2023-07-13T04:28:46;15.63;;;9.88;;
57746;SDS011;43580;44.014;20.466;2023-07-13T04:31:13;17.27;;;9.20;;
57746;SDS011;43580;44.014;20.466;2023-07-13T04:33:39;15.10;;;10.00;;
57746;SDS011;43580;44.014;20.466;2023-07-13T04:36:05;19.13;;;8.70;;
57746;SDS011;43580;44.014;20.466;2023-07-13T04:38:34;19.83;;;10.10;;
57746;SDS011;43580;44.014;20.466;2023-07-13T04:41:01;17.73;;;10.15;;
57746;SDS011;43580;44.014;20.466;2023-07-13T04:43:27;20.10;;;9.68;;
57746;SDS011;43580;44.014;20.466;2023-07-13T04:45:54;17.00;;;9.90;;
57746;SDS011;43580;44.014;20.466;2023-07-13T04:48:20;14.57;;;9.95;;
57746;SDS011;43580;44.014;20.466;2023-07-13T04:50:47;14.30;;;8.77;;
57746;SDS011;43580;44.014;20.466;2023-07-13T04:53:18;21.00;;;9.70;;
57746;SDS011;43580;44.014;20.466;2023-07-13T04:55:44;15.43;;;9.40;;
57746;SDS011;43580;44.014;20.466;2023-07-13T04:58:12;19.27;;;9.35;;
57746;SDS011;43580;44.014;20.466;2023-07-13T05:00:38;15.13;;;9.05;;
57746;SDS011;43580;44.014;20.466;2023-07-13T05:03:04;16.65;;;9.27;;
57746;SDS011;43580;44.014;20.466;2023-07-13T05:05:31;11.70;;;9.68;;
57746;SDS011;43580;44.014;20.466;2023-07-13T05:07:57;15.70;;;9.52;;
57746;SDS011;43580;44.014;20.466;2023-07-13T05:10:23;16.92;;;9.25;;
57746;SDS011;43580;44.014;20.466;2023-07-13T05:12:52;13.68;;;8.93;;
57746;SDS011;43580;44.014;20.466;2023-07-13T05:15:20;14.18;;;9.13;;
57746;SDS011;43580;44.014;20.466;2023-07-13T05:17:47;13.55;;;9.35;;
57746;SDS011;43580;44.014;20.466;2023-07-13T05:20:13;17.50;;;9.40;;
57746;SDS011;43580;44.014;20.466;2023-07-13T05:22:39;12.88;;;9.00;;
57746;SDS011;43580;44.014;20.466;2023-07-13T05:25:06;18.15;;;10.07;;
57746;SDS011;43580;44.014;20.466;2023-07-13T05:27:33;16.20;;;9.88;;
57746;SDS011;43580;44.014;20.466;2023-07-13T05:29:59;12.50;;;9.27;;
57746;SDS011;43580;44.014;20.466;2023-07-13T05:32:25;15.70;;;8.38;;
57746;SDS011;43580;44.014;20.466;2023-07-13T05:34:51;13.88;;;8.18;;
57746;SDS011;43580;44.014;20.466;2023-07-13T05:37:17;15.80;;;8.45;;
57746;SDS011;43580;44.014;20.466;2023-07-13T05:39:43;14.15;;;8.63;;
57746;SDS011;43580;44.014;20.466;2023-07-13T05:42:10;13.02;;;8.55;;
57746;SDS011;43580;44.014;20.466;2023-07-13T05:44:36;21.17;;;10.00;;
57746;SDS011;43580;44.014;20.466;2023-07-13T05:47:02;13.10;;;8.55;;
57746;SDS011;43580;44.014;20.466;2023-07-13T05:49:30;17.05;;;9.60;;
57746;SDS011;43580;44.014;20.466;2023-07-13T05:51:56;13.57;;;8.32;;
57746;SDS011;43580;44.014;20.466;2023-07-13T05:54:23;12.13;;;7.97;;
57746;SDS011;43580;44.014;20.466;2023-07-13T05:56:49;17.27;;;8.10;;
57746;SDS011;43580;44.014;20.466;2023-07-13T05:59:15;15.55;;;7.88;;
57746;SDS011;43580;44.014;20.466;2023-07-13T06:01:41;11.85;;;7.68;;
57746;SDS011;43580;44.014;20.466;2023-07-13T06:04:07;13.27;;;7.53;;
57746;SDS011;43580;44.014;20.466;2023-07-13T06:06:35;14.25;;;7.80;;
57746;SDS011;43580;44.014;20.466;2023-07-13T06:09:02;12.77;;;7.63;;
57746;SDS011;43580;44.014;20.466;2023-07-13T06:11:28;16.48;;;8.82;;
57746;SDS011;43580;44.014;20.466;2023-07-13T06:13:55;17.48;;;7.90;;
57746;SDS011;43580;44.014;20.466;2023-07-13T06:16:21;23.48;;;12.20;;
57746;SDS011;43580;44.014;20.466;2023-07-13T06:18:49;23.45;;;11.45;;
57746;SDS011;43580;44.014;20.466;2023-07-13T06:21:19;15.57;;;9.63;;
57746;SDS011;43580;44.014;20.466;2023-07-13T06:23:46;20.75;;;9.05;;
57746;SDS011;43580;44.014;20.466;2023-07-13T06:26:16;15.82;;;8.38;;
57746;SDS011;43580;44.014;20.466;2023-07-13T06:28:42;18.30;;;8.90;;
57746;SDS011;43580;44.014;20.466;2023-07-13T06:31:09;16.50;;;8.30;;
57746;SDS011;43580;44.014;20.466;2023-07-13T06:33:35;11.02;;;7.70;;
57746;SDS011;43580;44.014;20.466;2023-07-13T06:36:02;16.15;;;7.70;;
57746;SDS011;43580;44.014;20.466;2023-07-13T06:38:29;13.18;;;7.75;;
57746;SDS011;43580;44.014;20.466;2023-07-13T06:40:55;14.20;;;7.93;;
57746;SDS011;43580;44.014;20.466;2023-07-13T06:43:21;12.48;;;7.75;;
57746;SDS011;43580;44.014;20.466;2023-07-13T06:45:47;10.88;;;7.90;;
57746;SDS011;43580;44.014;20.466;2023-07-13T06:48:18;16.17;;;12.45;;
57746;SDS011;43580;44.014;20.466;2023-07-13T06:50:45;22.05;;;7.38;;
57746;SDS011;43580;44.014;20.466;2023-07-13T06:53:11;13.15;;;6.85;;
57746;SDS011;43580;44.014;20.466;2023-07-13T06:55:38;15.80;;;8.88;;
57746;SDS011;43580;44.014;20.466;2023-07-13T06:58:04;13.95;;;9.18;;
57746;SDS011;43580;44.014;20.466;2023-07-13T07:00:30;16.95;;;10.07;;
57746;SDS011;43580;44.014;20.466;2023-07-13T07:02:59;18.35;;;9.20;;
57746;SDS011;43580;44.014;20.466;2023-07-13T07:05:25;11.32;;;8.35;;
57746;SDS011;43580;44.014;20.466;2023-07-13T07:07:51;12.55;;;8.75;;
57746;SDS011;43580;44.014;20.466;2023-07-13T07:10:18;17.45;;;12.90;;
57746;SDS011;43580;44.014;20.466;2023-07-13T07:12:45;16.08;;;8.50;;
57746;SDS011;43580;44.014;20.466;2023-07-13T07:15:11;10.48;;;6.40;;
57746;SDS011;43580;44.014;20.466;2023-07-13T07:17:37;8.35;;;5.63;;
57746;SDS011;43580;44.014;20.466;2023-07-13T07:20:03;11.73;;;6.47;;
57746;SDS011;43580;44.014;20.466;2023-07-13T07:22:32;10.73;;;6.07;;
57746;SDS011;43580;44.014;20.466;2023-07-13T07:24:58;10.25;;;6.22;;
57746;SDS011;43580;44.014;20.466;2023-07-13T07:27:24;14.45;;;6.55;;
57746;SDS011;43580;44.014;20.466;2023-07-13T07:29:50;13.80;;;6.28;;
57746;SDS011;43580;44.014;20.466;2023-07-13T07:32:17;11.50;;;6.10;;
57746;SDS011;43580;44.014;20.466;2023-07-13T07:34:43;9.27;;;6.00;;
57746;SDS011;43580;44.014;20.466;2023-07-13T07:37:09;14.55;;;5.93;;
57746;SDS011;43580;44.014;20.466;2023-07-13T07:39:36;11.07;;;6.00;;
57746;SDS011;43580;44.014;20.466;2023-07-13T07:42:03;11.43;;;6.10;;
57746;SDS011;43580;44.014;20.466;2023-07-13T07:44:30;15.30;;;6.10;;
57746;SDS011;43580;44.014;20.466;2023-07-13T07:46:56;11.55;;;5.43;;
57746;SDS011;43580;44.014;20.466;2023-07-13T07:49:22;11.15;;;5.80;;
57746;SDS011;43580;44.014;20.466;2023-07-13T07:51:48;12.20;;;5.45;;
57746;SDS011;43580;44.014;20.466;2023-07-13T07:54:14;7.95;;;4.70;;
57746;SDS011;43580;44.014;20.466;2023-07-13T07:56:40;10.05;;;4.93;;
57746;SDS011;43580;44.014;20.466;2023-07-13T07:59:06;9.77;;;7.78;;
57746;SDS011;43580;44.014;20.466;2023-07-13T08:01:32;10.00;;;5.38;;
57746;SDS011;43580;44.014;20.466;2023-07-13T08:03:58;10.68;;;5.55;;
57746;SDS011;43580;44.014;20.466;2023-07-13T08:06:24;11.10;;;6.03;;
57746;SDS011;43580;44.014;20.466;2023-07-13T08:08:50;6.82;;;4.90;;
57746;SDS011;43580;44.014;20.466;2023-07-13T08:11:17;7.97;;;4.53;;
57746;SDS011;43580;44.014;20.466;2023-07-13T08:13:43;11.00;;;5.00;;
57746;SDS011;43580;44.014;20.466;2023-07-13T08:16:10;9.93;;;5.50;;
57746;SDS011;43580;44.014;20.466;2023-07-13T08:18:36;11.38;;;5.78;;
57746;SDS011;43580;44.014;20.466;2023-07-13T08:21:03;7.82;;;5.03;;
57746;SDS011;43580;44.014;20.466;2023-07-13T08:23:32;9.80;;;5.72;;
57746;SDS011;43580;44.014;20.466;2023-07-13T08:25:58;11.65;;;6.07;;
57746;SDS011;43580;44.014;20.466;2023-07-13T08:28:26;10.20;;;5.63;;
57746;SDS011;43580;44.014;20.466;2023-07-13T08:30:53;10.70;;;5.82;;
57746;SDS011;43580;44.014;20.466;2023-07-13T08:33:19;8.75;;;5.70;;
57746;SDS011;43580;44.014;20.466;2023-07-13T08:35:46;13.48;;;5.68;;
57746;SDS011;43580;44.014;20.466;2023-07-13T08:38:12;10.45;;;5.40;;
57746;SDS011;43580;44.014;20.466;2023-07-13T08:40:39;11.02;;;5.50;;
57746;SDS011;43580;44.014;20.466;2023-07-13T08:43:06;11.82;;;5.43;;
57746;SDS011;43580;44.014;20.466;2023-07-13T08:45:39;30.95;;;9.20;;
57746;SDS011;43580;44.014;20.466;2023-07-13T08:50:35;9.95;;;5.90;;
57746;SDS011;43580;44.014;20.466;2023-07-13T08:53:04;15.68;;;5.88;;
57746;SDS011;43580;44.014;20.466;2023-07-13T08:55:33;11.65;;;5.97;;
57746;SDS011;43580;44.014;20.466;2023-07-13T08:58:12;13.20;;;6.03;;
57746;SDS011;43580;44.014;20.466;2023-07-13T09:00:43;15.95;;;5.90;;
57746;SDS011;43580;44.014;20.466;2023-07-13T09:03:18;7.63;;;4.15;;
57746;SDS011;43580;44.014;20.466;2023-07-13T09:05:50;13.02;;;6.22;;
57746;SDS011;43580;44.014;20.466;2023-07-13T09:11:12;11.85;;;5.95;;
57746;SDS011;43580;44.014;20.466;2023-07-13T09:13:43;9.95;;;5.63;;
57746;SDS011;43580;44.014;20.466;2023-07-13T09:16:11;9.20;;;5.65;;
57746;SDS011;43580;44.014;20.466;2023-07-13T09:18:41;12.68;;;5.93;;
57746;SDS011;43580;44.014;20.466;2023-07-13T09:23:34;12.35;;;5.78;;
57746;SDS011;43580;44.014;20.466;2023-07-13T09:26:08;14.13;;;6.55;;
57746;SDS011;43580;44.014;20.466;2023-07-13T09:28:38;10.93;;;5.88;;
57746;SDS011;43580;44.014;20.466;2023-07-13T09:31:14;17.63;;;6.50;;
57746;SDS011;43580;44.014;20.466;2023-07-13T09:33:41;13.90;;;6.72;;
57746;SDS011;43580;44.014;20.466;2023-07-13T09:38:46;14.35;;;6.15;;
57746;SDS011;43580;44.014;20.466;2023-07-13T09:41:21;9.27;;;6.10;;
57746;SDS011;43580;44.014;20.466;2023-07-13T09:46:34;9.13;;;6.30;;
57746;SDS011;43580;44.014;20.466;2023-07-13T09:49:00;13.25;;;7.13;;
57746;SDS011;43580;44.014;20.466;2023-07-13T09:51:26;19.33;;;6.90;;
57746;SDS011;43580;44.014;20.466;2023-07-13T09:53:53;10.10;;;6.57;;
57746;SDS011;43580;44.014;20.466;2023-07-13T09:56:23;12.45;;;6.53;;
57746;SDS011;43580;44.014;20.466;2023-07-13T09:58:51;8.30;;;5.95;;
57746;SDS011;43580;44.014;20.466;2023-07-13T10:01:30;13.38;;;6.60;;
57746;SDS011;43580;44.014;20.466;2023-07-13T10:03:57;15.13;;;6.93;;
57746;SDS011;43580;44.014;20.466;2023-07-13T10:06:23;13.02;;;6.50;;
57746;SDS011;43580;44.014;20.466;2023-07-13T10:08:51;16.08;;;6.57;;
57746;SDS011;43580;44.014;20.466;2023-07-13T10:11:21;10.20;;;6.35;;
57746;SDS011;43580;44.014;20.466;2023-07-13T10:13:55;12.35;;;6.25;;
57746;SDS011;43580;44.014;20.466;2023-07-13T10:16:22;13.35;;;6.30;;
57746;SDS011;43580;44.014;20.466;2023-07-13T10:18:50;12.48;;;6.60;;
57746;SDS011;43580;44.014;20.466;2023-07-13T10:21:19;17.25;;;6.63;;
57746;SDS011;43580;44.014;20.466;2023-07-13T10:23:55;15.30;;;6.95;;
57746;SDS011;43580;44.014;20.466;2023-07-13T10:26:26;18.65;;;6.97;;
57746;SDS011;43580;44.014;20.466;2023-07-13T10:28:54;13.77;;;6.22;;
57746;SDS011;43580;44.014;20.466;2023-07-13T10:31:21;9.43;;;6.50;;
57746;SDS011;43580;44.014;20.466;2023-07-13T10:33:48;13.85;;;6.97;;
57746;SDS011;43580;44.014;20.466;2023-07-13T10:36:20;13.02;;;7.20;;
57746;SDS011;43580;44.014;20.466;2023-07-13T10:38:49;11.82;;;7.10;;
57746;SDS011;43580;44.014;20.466;2023-07-13T10:41:20;9.70;;;6.32;;
57746;SDS011;43580;44.014;20.466;2023-07-13T10:43:50;15.52;;;7.03;;
57746;SDS011;43580;44.014;20.466;2023-07-13T10:46:18;13.27;;;7.80;;
57746;SDS011;43580;44.014;20.466;2023-07-13T10:48:46;14.23;;;7.22;;
57746;SDS011;43580;44.014;20.466;2023-07-13T10:51:15;14.93;;;8.00;;
57746;SDS011;43580;44.014;20.466;2023-07-13T10:53:41;12.82;;;7.38;;
57746;SDS011;43580;44.014;20.466;2023-07-13T10:58:47;12.38;;;7.38;;
57746;SDS011;43580;44.014;20.466;2023-07-13T11:01:26;12.00;;;6.43;;
57746;SDS011;43580;44.014;20.466;2023-07-13T11:04:04;10.73;;;7.00;;
57746;SDS011;43580;44.014;20.466;2023-07-13T11:06:33;12.30;;;6.75;;
57746;SDS011;43580;44.014;20.466;2023-07-13T11:09:17;13.95;;;7.43;;
57746;SDS011;43580;44.014;20.466;2023-07-13T11:11:43;18.70;;;7.75;;
57746;SDS011;43580;44.014;20.466;2023-07-13T11:15:00;11.00;;;6.65;;
57746;SDS011;43580;44.014;20.466;2023-07-13T11:17:00;15.80;;;6.80;;
57746;SDS011;43580;44.014;20.466;2023-07-13T11:19:50;11.82;;;6.30;;
57746;SDS011;43580;44.014;20.466;2023-07-13T11:22:21;14.80;;;7.70;;
57746;SDS011;43580;44.014;20.466;2023-07-13T11:24:49;12.45;;;7.40;;
57746;SDS011;43580;44.014;20.466;2023-07-13T11:30:36;10.68;;;7.18;;
57746;SDS011;43580;44.014;20.466;2023-07-13T11:35:45;13.90;;;8.25;;
57746;SDS011;43580;44.014;20.466;2023-07-13T11:38:22;14.02;;;7.38;;
57746;SDS011;43580;44.014;20.466;2023-07-13T11:40:50;18.95;;;7.78;;
57746;SDS011;43580;44.014;20.466;2023-07-13T11:43:17;11.75;;;7.07;;
57746;SDS011;43580;44.014;20.466;2023-07-13T11:45:43;13.60;;;6.88;;
57746;SDS011;43580;44.014;20.466;2023-07-13T11:48:19;13.07;;;8.20;;
57746;SDS011;43580;44.014;20.466;2023-07-13T11:50:50;10.88;;;7.15;;
57746;SDS011;43580;44.014;20.466;2023-07-13T11:53:16;12.10;;;7.90;;
57746;SDS011;43580;44.014;20.466;2023-07-13T11:55:42;11.43;;;6.85;;
57746;SDS011;43580;44.014;20.466;2023-07-13T11:58:08;13.20;;;7.28;;
57746;SDS011;43580;44.014;20.466;2023-07-13T12:00:35;11.48;;;6.93;;
57746;SDS011;43580;44.014;20.466;2023-07-13T12:03:03;10.70;;;7.22;;
57746;SDS011;43580;44.014;20.466;2023-07-13T12:05:32;16.70;;;7.85;;
57746;SDS011;43580;44.014;20.466;2023-07-13T12:07:59;10.50;;;7.18;;
57746;SDS011;43580;44.014;20.466;2023-07-13T12:10:34;10.68;;;7.07;;
57746;SDS011;43580;44.014;20.466;2023-07-13T12:13:01;11.25;;;7.40;;
57746;SDS011;43580;44.014;20.466;2023-07-13T12:15:36;11.77;;;7.07;;
57746;SDS011;43580;44.014;20.466;2023-07-13T12:18:03;11.38;;;7.20;;
57746;SDS011;43580;44.014;20.466;2023-07-13T12:20:36;12.50;;;8.93;;
57746;SDS011;43580;44.014;20.466;2023-07-13T12:23:05;12.52;;;6.80;;
57746;SDS011;43580;44.014;20.466;2023-07-13T12:25:31;17.45;;;7.72;;
57746;SDS011;43580;44.014;20.466;2023-07-13T12:27:57;12.82;;;7.47;;
57746;SDS011;43580;44.014;20.466;2023-07-13T12:30:27;16.02;;;9.20;;
57746;SDS011;43580;44.014;20.466;2023-07-13T12:35:24;13.57;;;7.70;;
57746;SDS011;43580;44.014;20.466;2023-07-13T12:37:51;15.48;;;8.00;;
57746;SDS011;43580;44.014;20.466;2023-07-13T12:40:20;14.48;;;7.63;;
57746;SDS011;43580;44.014;20.466;2023-07-13T12:42:48;12.55;;;7.75;;
57746;SDS011;43580;44.014;20.466;2023-07-13T12:45:23;12.65;;;7.32;;
57746;SDS011;43580;44.014;20.466;2023-07-13T12:47:54;12.98;;;7.43;;
57746;SDS011;43580;44.014;20.466;2023-07-13T12:50:22;9.90;;;7.60;;
57746;SDS011;43580;44.014;20.466;2023-07-13T12:52:52;12.18;;;7.35;;
57746;SDS011;43580;44.014;20.466;2023-07-13T12:55:19;12.65;;;7.53;;
57746;SDS011;43580;44.014;20.466;2023-07-13T12:57:55;12.15;;;6.97;;
57746;SDS011;43580;44.014;20.466;2023-07-13T13:02:51;9.98;;;7.32;;
57746;SDS011;43580;44.014;20.466;2023-07-13T13:05:21;10.82;;;7.05;;
57746;SDS011;43580;44.014;20.466;2023-07-13T13:07:48;12.07;;;8.00;;
57746;SDS011;43580;44.014;20.466;2023-07-13T13:10:15;16.55;;;7.10;;
57746;SDS011;43580;44.014;20.466;2023-07-13T13:12:41;18.23;;;7.72;;
57746;SDS011;43580;44.014;20.466;2023-07-13T13:15:10;14.63;;;7.05;;
57746;SDS011;43580;44.014;20.466;2023-07-13T13:17:37;13.77;;;7.15;;
57746;SDS011;43580;44.014;20.466;2023-07-13T13:22:59;8.18;;;6.47;;
57746;SDS011;43580;44.014;20.466;2023-07-13T13:25:25;10.75;;;6.72;;
57746;SDS011;43580;44.014;20.466;2023-07-13T13:27:51;12.05;;;7.28;;
57746;SDS011;43580;44.014;20.466;2023-07-13T13:30:17;11.95;;;7.70;;
57746;SDS011;43580;44.014;20.466;2023-07-13T13:32:44;11.13;;;6.85;;
57746;SDS011;43580;44.014;20.466;2023-07-13T13:35:15;10.18;;;6.80;;
57746;SDS011;43580;44.014;20.466;2023-07-13T13:37:42;14.48;;;7.03;;
57746;SDS011;43580;44.014;20.466;2023-07-13T13:40:15;13.38;;;7.32;;
57746;SDS011;43580;44.014;20.466;2023-07-13T13:42:42;10.60;;;6.68;;
57746;SDS011;43580;44.014;20.466;2023-07-13T13:45:11;11.48;;;6.63;;
57746;SDS011;43580;44.014;20.466;2023-07-13T13:47:38;11.90;;;7.43;;
57746;SDS011;43580;44.014;20.466;2023-07-13T13:50:15;12.48;;;7.28;;
57746;SDS011;43580;44.014;20.466;2023-07-13T13:52:41;11.52;;;7.30;;
57746;SDS011;43580;44.014;20.466;2023-07-13T13:55:14;11.73;;;6.47;;
57746;SDS011;43580;44.014;20.466;2023-07-13T14:00:10;11.10;;;6.88;;
57746;SDS011;43580;44.014;20.466;2023-07-13T14:02:40;11.13;;;7.20;;
57746;SDS011;43580;44.014;20.466;2023-07-13T14:05:06;14.50;;;7.05;;
57746;SDS011;43580;44.014;20.466;2023-07-13T14:07:37;9.57;;;6.30;;
57746;SDS011;43580;44.014;20.466;2023-07-13T14:10:13;9.15;;;7.03;;
57746;SDS011;43580;44.014;20.466;2023-07-13T14:12:40;13.35;;;6.75;;
57746;SDS011;43580;44.014;20.466;2023-07-13T14:15:09;9.82;;;6.88;;
57746;SDS011;43580;44.014;20.466;2023-07-13T14:17:41;14.00;;;7.25;;
57746;SDS011;43580;44.014;20.466;2023-07-13T14:20:10;9.95;;;7.15;;
57746;SDS011;43580;44.014;20.466;2023-07-13T14:22:37;12.50;;;7.38;;
57746;SDS011;43580;44.014;20.466;2023-07-13T14:25:03;10.98;;;7.30;;
57746;SDS011;43580;44.014;20.466;2023-07-13T14:27:29;11.73;;;7.13;;
57746;SDS011;43580;44.014;20.466;2023-07-13T14:29:58;10.35;;;7.95;;
57746;SDS011;43580;44.014;20.466;2023-07-13T14:32:26;13.23;;;6.95;;
57746;SDS011;43580;44.014;20.466;2023-07-13T14:34:52;12.93;;;6.72;;
57746;SDS011;43580;44.014;20.466;2023-07-13T14:37:18;14.20;;;6.75;;
57746;SDS011;43580;44.014;20.466;2023-07-13T14:39:45;11.02;;;7.22;;
57746;SDS011;43580;44.014;20.466;2023-07-13T14:42:12;12.90;;;7.25;;
57746;SDS011;43580;44.014;20.466;2023-07-13T14:44:38;9.65;;;7.00;;
57746;SDS011;43580;44.014;20.466;2023-07-13T14:47:05;11.88;;;6.95;;
57746;SDS011;43580;44.014;20.466;2023-07-13T14:49:42;13.13;;;6.90;;
57746;SDS011;43580;44.014;20.466;2023-07-13T14:52:17;12.93;;;7.47;;
57746;SDS011;43580;44.014;20.466;2023-07-13T14:57:15;12.35;;;6.93;;
57746;SDS011;43580;44.014;20.466;2023-07-13T14:59:41;12.13;;;7.90;;
57746;SDS011;43580;44.014;20.466;2023-07-13T15:02:25;17.17;;;7.63;;